Time,TemperatureF,DewpointF,PressureIn,WindDirection,WindDirectionDegrees,WindSpeedMPH,WindSpeedGustMPH,Humidity,HourlyPrecipIn,Conditions,Clouds,dailyrainin,SoftwareType,DateUTC
2013-10-21 00:01:00,38.7,37.0,30.12,SW,230,0.0,-999.0,92,-99.99,,,0.00,weatherlink.com 1.10,2013-10-21 04:01:00,
2013-10-21 00:16:00,38.3,36.0,30.12,SW,230,0.0,-999.0,92,-99.99,,,0.00,weatherlink.com 1.10,2013-10-21 04:16:00,
2013-10-21 00:31:00,38.0,36.0,30.12,SW,230,0.0,-999.0,93,-99.99,,,0.00,weatherlink.com 1.10,2013-10-21 04:31:00,
2013-10-21 00:46:00,38.0,36.0,30.12,SW,230,0.0,-999.0,93,-99.99,,,0.00,weatherlink.com 1.10,2013-10-21 04:46:00,
2013-10-21 01:01:00,37.9,36.0,30.12,SW,230,0.0,-999.0,94,-99.99,,,0.00,weatherlink.com 1.10,2013-10-21 05:01:00,
2013-10-21 01:16:00,38.0,37.0,30.12,SW,230,0.0,-999.0,94,-99.99,,,0.00,weatherlink.com 1.10,2013-10-21 05:16:00,
2013-10-21 01:31:00,37.8,36.0,30.12,SW,230,0.0,-999.0,94,-99.99,,,0.00,weatherlink.com 1.10,2013-10-21 05:31:00,
2013-10-21 01:46:00,38.2,37.0,30.13,SW,230,0.0,-999.0,94,-99.99,,,0.00,weatherlink.com 1.10,2013-10-21 05:46:00,
2013-10-21 02:01:00,38.0,37.0,30.13,SW,230,0.0,-999.0,94,-99.99,,,0.00,weatherlink.com 1.10,2013-10-21 06:01:00,
2013-10-21 02:16:00,37.7,36.0,30.13,SW,230,0.0,-999.0,94,-99.99,,,0.00,weatherlink.com 1.10,2013-10-21 06:16:00,
2013-10-21 02:31:00,37.1,36.0,30.13,SW,230,0.0,-999.0,94,-99.99,,,0.00,weatherlink.com 1.10,2013-10-21 06:31:00,
2013-10-21 02:46:00,37.0,36.0,30.13,SW,230,0.0,-999.0,94,-99.99,,,0.00,weatherlink.com 1.10,2013-10-21 06:46:00,
2013-10-21 03:01:00,36.7,35.0,30.13,SW,230,0.0,-999.0,94,-99.99,,,0.00,weatherlink.com 1.10,2013-10-21 07:01:00,
2013-10-21 03:16:00,36.5,35.0,30.14,SW,230,0.0,-999.0,94,-99.99,,,0.00,weatherlink.com 1.10,2013-10-21 07:16:00,
2013-10-21 03:31:00,36.1,35.0,30.13,SW,230,0.0,-999.0,94,-99.99,,,0.00,weatherlink.com 1.10,2013-10-21 07:31:00,
2013-10-21 03:46:00,35.9,35.0,30.13,SW,230,0.0,-999.0,95,-99.99,,,0.00,weatherlink.com 1.10,2013-10-21 07:46:00,
2013-10-21 04:01:00,36.0,35.0,30.13,SW,230,0.0,-999.0,95,-99.99,,,0.00,weatherlink.com 1.10,2013-10-21 08:01:00,
2013-10-21 04:16:00,35.8,35.0,30.13,SW,230,0.0,-999.0,95,-99.99,,,0.00,weatherlink.com 1.10,2013-10-21 08:16:00,
2013-10-21 04:31:00,35.6,34.0,30.14,SW,230,0.0,-999.0,95,-99.99,,,0.00,weatherlink.com 1.10,2013-10-21 08:31:00,
2013-10-21 04:46:00,35.5,34.0,30.13,SW,230,0.0,-999.0,95,-99.99,,,0.00,weatherlink.com 1.10,2013-10-21 08:46:00,
2013-10-21 05:01:00,35.1,34.0,30.14,SW,230,0.0,-999.0,95,-99.99,,,0.00,weatherlink.com 1.10,2013-10-21 09:01:00,
2013-10-21 05:16:00,35.0,34.0,30.14,SW,230,0.0,-999.0,95,-99.99,,,0.00,weatherlink.com 1.10,2013-10-21 09:16:00,
2013-10-21 05:31:00,35.1,34.0,30.14,SW,230,0.0,-999.0,95,-99.99,,,0.00,weatherlink.com 1.10,2013-10-21 09:31:00,
2013-10-21 05:46:00,34.7,34.0,30.15,SW,230,0.0,-999.0,95,-99.99,,,0.00,weatherlink.com 1.10,2013-10-21 09:46:00,
2013-10-21 06:01:00,34.5,33.0,30.15,SW,230,0.0,-999.0,95,-99.99,,,0.00,weatherlink.com 1.10,2013-10-21 10:01:00,
2013-10-21 06:16:00,34.4,33.0,30.15,SW,230,0.0,-999.0,95,-99.99,,,0.00,weatherlink.com 1.10,2013-10-21 10:16:00,
2013-10-21 06:31:00,34.4,33.0,30.15,SW,230,0.0,-999.0,96,-99.99,,,0.00,weatherlink.com 1.10,2013-10-21 10:31:00,
2013-10-21 06:46:00,34.3,33.0,30.15,SW,230,0.0,-999.0,96,-99.99,,,0.00,weatherlink.com 1.10,2013-10-21 10:46:00,
2013-10-21 07:01:00,34.1,33.0,30.15,SW,230,0.0,-999.0,96,-99.99,,,0.00,weatherlink.com 1.10,2013-10-21 11:01:00,
2013-10-21 07:16:00,34.2,33.0,30.15,SW,230,0.0,-999.0,96,-99.99,,,0.00,weatherlink.com 1.10,2013-10-21 11:16:00,
2013-10-21 07:31:00,35.3,34.0,30.16,SW,230,0.0,-999.0,96,-99.99,,,0.00,weatherlink.com 1.10,2013-10-21 11:31:00,
2013-10-21 07:46:00,35.4,34.0,30.16,SW,230,0.0,-999.0,96,-99.99,,,0.00,weatherlink.com 1.10,2013-10-21 11:46:00,
2013-10-21 08:01:00,34.6,33.0,30.16,SW,230,0.0,-999.0,95,-99.99,,,0.00,weatherlink.com 1.10,2013-10-21 12:01:00,
2013-10-21 08:16:00,34.3,33.0,30.16,SW,230,0.0,-999.0,96,-99.99,,,0.00,weatherlink.com 1.10,2013-10-21 12:16:00,
2013-10-21 08:32:00,35.0,34.0,30.16,SW,230,0.0,-999.0,96,-99.99,,,0.00,weatherlink.com 1.10,2013-10-21 12:32:00,
2013-10-21 08:46:00,36.3,35.0,30.17,SW,230,0.0,-999.0,96,-99.99,,,0.00,weatherlink.com 1.10,2013-10-21 12:46:00,
2013-10-21 09:01:00,38.5,38.0,30.17,SW,230,0.0,-999.0,97,-99.99,,,0.00,weatherlink.com 1.10,2013-10-21 13:01:00,
2013-10-21 09:16:00,40.3,40.0,30.16,SW,230,0.0,-999.0,97,-99.99,,,0.00,weatherlink.com 1.10,2013-10-21 13:16:00,
2013-10-21 09:31:00,42.3,42.0,30.17,SW,230,0.0,-999.0,97,-99.99,,,0.00,weatherlink.com 1.10,2013-10-21 13:31:00,
2013-10-21 09:46:00,44.1,43.0,30.16,SW,230,0.0,-999.0,97,-99.99,,,0.00,weatherlink.com 1.10,2013-10-21 13:46:00,
2013-10-21 10:01:00,46.0,44.0,30.16,SW,230,0.0,-999.0,94,-99.99,,,0.00,weatherlink.com 1.10,2013-10-21 14:01:00,
2013-10-21 10:16:00,48.2,44.0,30.15,SSW,200,1.0,-999.0,86,-99.99,,,0.00,weatherlink.com 1.10,2013-10-21 14:16:00,
2013-10-21 10:31:00,50.2,45.0,30.15,SSW,200,3.0,-999.0,81,-99.99,,,0.00,weatherlink.com 1.10,2013-10-21 14:31:00,
2013-10-21 10:46:00,52.3,46.0,30.14,SSW,192,6.0,-999.0,78,-99.99,,,0.00,weatherlink.com 1.10,2013-10-21 14:46:00,
2013-10-21 11:01:00,54.5,46.0,30.13,South,190,4.0,-999.0,73,-99.99,,,0.00,weatherlink.com 1.10,2013-10-21 15:01:00,
2013-10-21 11:16:00,56.8,47.0,30.13,SSW,204,5.0,-999.0,69,-99.99,,,0.00,weatherlink.com 1.10,2013-10-21 15:16:00,
2013-10-21 11:31:00,58.6,46.0,30.12,South,169,0.0,-999.0,64,-99.99,,,0.00,weatherlink.com 1.10,2013-10-21 15:31:00,
2013-10-21 11:46:00,60.7,46.0,30.11,South,181,8.0,-999.0,58,-99.99,,,0.00,weatherlink.com 1.10,2013-10-21 15:46:00,
2013-10-21 12:01:00,62.3,42.0,30.10,SSW,199,5.0,-999.0,47,-99.99,,,0.00,weatherlink.com 1.10,2013-10-21 16:01:00,
2013-10-21 12:16:00,62.8,42.0,30.10,WSW,240,8.0,-999.0,46,-99.99,,,0.00,weatherlink.com 1.10,2013-10-21 16:16:00,
2013-10-21 12:31:00,63.7,42.0,30.09,WSW,245,6.0,-999.0,46,-99.99,,,0.00,weatherlink.com 1.10,2013-10-21 16:31:00,
2013-10-21 12:46:00,64.4,42.0,30.08,SW,219,7.0,-999.0,45,-99.99,,,0.00,weatherlink.com 1.10,2013-10-21 16:46:00,
2013-10-21 13:01:00,64.8,42.0,30.07,SW,215,7.0,-999.0,44,-99.99,,,0.00,weatherlink.com 1.10,2013-10-21 17:01:00,
2013-10-21 13:16:00,64.2,44.0,30.06,SSW,201,9.0,-999.0,48,-99.99,,,0.00,weatherlink.com 1.10,2013-10-21 17:16:00,
2013-10-21 13:31:00,64.8,44.0,30.05,WSW,246,8.0,-999.0,47,-99.99,,,0.00,weatherlink.com 1.10,2013-10-21 17:31:00,
2013-10-21 13:46:00,66.2,45.0,30.04,WSW,237,10.0,-999.0,46,-99.99,,,0.00,weatherlink.com 1.10,2013-10-21 17:46:00,
2013-10-21 14:01:00,66.2,44.0,30.04,SW,230,5.0,-999.0,45,-99.99,,,0.00,weatherlink.com 1.10,2013-10-21 18:01:00,
2013-10-21 14:16:00,66.7,45.0,30.03,SSW,194,8.0,-999.0,46,-99.99,,,0.00,weatherlink.com 1.10,2013-10-21 18:16:00,
2013-10-21 14:31:00,67.3,45.0,30.02,SW,236,5.0,-999.0,44,-99.99,,,0.00,weatherlink.com 1.10,2013-10-21 18:31:00,
2013-10-21 14:46:00,66.9,44.0,30.01,South,182,9.0,-999.0,44,-99.99,,,0.00,weatherlink.com 1.10,2013-10-21 18:46:00,
2013-10-21 15:01:00,67.6,44.0,30.01,SSW,207,5.0,-999.0,43,-99.99,,,0.00,weatherlink.com 1.10,2013-10-21 19:01:00,
2013-10-21 15:16:00,68.0,45.0,30.00,SSW,212,4.0,-999.0,44,-99.99,,,0.00,weatherlink.com 1.10,2013-10-21 19:16:00,
2013-10-21 15:31:00,68.2,45.0,30.00,South,178,14.0,-999.0,43,-99.99,,,0.00,weatherlink.com 1.10,2013-10-21 19:31:00,
2013-10-21 15:46:00,68.4,46.0,29.99,SW,217,6.0,-999.0,44,-99.99,,,0.00,weatherlink.com 1.10,2013-10-21 19:46:00,
2013-10-21 16:01:00,68.3,45.0,29.98,SE,143,8.0,-999.0,44,-99.99,,,0.00,weatherlink.com 1.10,2013-10-21 20:01:00,
2013-10-21 16:16:00,68.0,45.0,29.98,SSE,154,9.0,-999.0,44,-99.99,,,0.00,weatherlink.com 1.10,2013-10-21 20:16:00,
2013-10-21 16:31:00,67.7,45.0,29.98,SSE,164,6.0,-999.0,44,-99.99,,,0.00,weatherlink.com 1.10,2013-10-21 20:31:00,
2013-10-21 16:46:00,67.1,45.0,29.98,SSE,165,14.0,-999.0,46,-99.99,,,0.00,weatherlink.com 1.10,2013-10-21 20:46:00,
2013-10-21 17:01:00,66.1,45.0,29.98,South,182,14.0,-999.0,46,-99.99,,,0.00,weatherlink.com 1.10,2013-10-21 21:01:00,
2013-10-21 17:16:00,65.7,45.0,29.97,SSE,147,9.0,-999.0,47,-99.99,,,0.00,weatherlink.com 1.10,2013-10-21 21:16:00,
2013-10-21 17:31:00,64.9,45.0,29.98,South,173,7.0,-999.0,49,-99.99,,,0.00,weatherlink.com 1.10,2013-10-21 21:31:00,
2013-10-21 17:46:00,64.3,45.0,29.98,South,188,5.0,-999.0,50,-99.99,,,0.00,weatherlink.com 1.10,2013-10-21 21:46:00,
2013-10-21 18:01:00,63.4,45.0,29.99,South,190,9.0,-999.0,51,-99.99,,,0.00,weatherlink.com 1.10,2013-10-21 22:01:00,
2013-10-21 18:16:00,62.3,45.0,29.99,SSW,207,6.0,-999.0,53,-99.99,,,0.00,weatherlink.com 1.10,2013-10-21 22:16:00,
2013-10-21 18:31:00,61.3,45.0,29.99,South,185,4.0,-999.0,56,-99.99,,,0.00,weatherlink.com 1.10,2013-10-21 22:31:00,
2013-10-21 18:46:00,60.5,45.0,29.99,South,191,4.0,-999.0,57,-99.99,,,0.00,weatherlink.com 1.10,2013-10-21 22:46:00,
2013-10-21 19:01:00,60.0,45.0,29.99,South,185,4.0,-999.0,58,-99.99,,,0.00,weatherlink.com 1.10,2013-10-21 23:01:00,
2013-10-21 19:16:00,59.8,45.0,29.99,SW,220,4.0,-999.0,58,-99.99,,,0.00,weatherlink.com 1.10,2013-10-21 23:16:00,
2013-10-21 19:31:00,59.4,45.0,29.99,South,190,3.0,-999.0,59,-99.99,,,0.00,weatherlink.com 1.10,2013-10-21 23:31:00,
2013-10-21 19:46:00,58.7,45.0,30.00,South,184,3.0,-999.0,60,-99.99,,,0.00,weatherlink.com 1.10,2013-10-21 23:46:00,
2013-10-21 20:01:00,58.1,45.0,30.00,SSW,194,0.0,-999.0,61,-99.99,,,0.00,weatherlink.com 1.10,2013-10-22 00:01:00,
2013-10-21 20:16:00,57.5,45.0,30.00,SSW,194,0.0,-999.0,63,-99.99,,,0.00,weatherlink.com 1.10,2013-10-22 00:16:00,
2013-10-21 20:31:00,56.6,44.0,29.99,SSW,194,0.0,-999.0,64,-99.99,,,0.00,weatherlink.com 1.10,2013-10-22 00:31:00,
2013-10-21 20:46:00,56.3,45.0,29.99,SSW,194,0.0,-999.0,65,-99.99,,,0.00,weatherlink.com 1.10,2013-10-22 00:46:00,
2013-10-21 21:01:00,56.1,45.0,29.99,SSW,194,0.0,-999.0,66,-99.99,,,0.00,weatherlink.com 1.10,2013-10-22 01:01:00,
2013-10-21 21:16:00,55.3,45.0,29.98,SSW,194,0.0,-999.0,68,-99.99,,,0.00,weatherlink.com 1.10,2013-10-22 01:16:00,
2013-10-21 21:31:00,54.8,45.0,29.98,SSW,194,0.0,-999.0,70,-99.99,,,0.00,weatherlink.com 1.10,2013-10-22 01:31:00,
2013-10-21 21:46:00,54.3,45.0,29.98,SSW,194,0.0,-999.0,72,-99.99,,,0.00,weatherlink.com 1.10,2013-10-22 01:46:00,
2013-10-21 22:01:00,53.1,45.0,29.99,SSW,194,0.0,-999.0,74,-99.99,,,0.00,weatherlink.com 1.10,2013-10-22 02:01:00,
2013-10-21 22:16:00,52.4,45.0,29.99,SSW,194,0.0,-999.0,77,-99.99,,,0.00,weatherlink.com 1.10,2013-10-22 02:16:00,
2013-10-21 22:31:00,52.4,45.0,29.99,SSW,194,0.0,-999.0,77,-99.99,,,0.00,weatherlink.com 1.10,2013-10-22 02:31:00,
2013-10-21 22:46:00,52.3,46.0,29.98,SSW,194,0.0,-999.0,79,-99.99,,,0.00,weatherlink.com 1.10,2013-10-22 02:46:00,
2013-10-21 23:01:00,52.9,46.0,29.98,SSW,194,0.0,-999.0,78,-99.99,,,0.00,weatherlink.com 1.10,2013-10-22 03:01:00,
2013-10-21 23:16:00,53.2,46.0,29.97,SSW,194,0.0,-999.0,77,-99.99,,,0.00,weatherlink.com 1.10,2013-10-22 03:16:00,
2013-10-21 23:31:00,53.3,46.0,29.96,SSW,194,0.0,-999.0,77,-99.99,,,0.00,weatherlink.com 1.10,2013-10-22 03:31:00,
2013-10-21 23:46:00,53.2,46.0,29.96,SSW,194,0.0,-999.0,77,-99.99,,,0.00,weatherlink.com 1.10,2013-10-22 03:46:00,